createdAt,value
2022-08-11T00:01:15.693Z,22.40
2022-08-11T00:03:48.967Z,22.40
2022-08-11T00:06:27.344Z,22.44
2022-08-11T00:08:56.697Z,22.33
2022-08-11T00:11:36.259Z,22.34
2022-08-11T00:14:06.693Z,22.25
2022-08-11T00:16:35.372Z,22.31
2022-08-11T00:19:04.927Z,22.34
2022-08-11T00:22:04.707Z,22.29
2022-08-11T00:24:53.311Z,22.27
2022-08-11T00:27:32.221Z,22.31
2022-08-11T00:30:02.057Z,22.29
2022-08-11T00:32:31.721Z,22.11
2022-08-11T00:35:53.663Z,21.93
2022-08-11T00:37:57.109Z,21.91
2022-08-11T00:40:34.638Z,21.84
2022-08-11T00:43:20.757Z,21.85
2022-08-11T00:46:12.315Z,21.87
2022-08-11T00:48:50.243Z,21.68
2022-08-11T00:52:04.444Z,21.79
2022-08-11T00:54:59.745Z,21.81
2022-08-11T00:58:01.877Z,21.86
2022-08-11T01:00:41.977Z,21.80
2022-08-11T01:03:26.353Z,21.84
2022-08-11T01:06:12.996Z,21.64
2022-08-11T01:09:17.883Z,21.81
2022-08-11T01:12:22.221Z,21.79
2022-08-11T01:15:40.659Z,21.71
2022-08-11T01:18:32.370Z,21.53
2022-08-11T01:21:17.780Z,21.46
2022-08-11T01:24:39.811Z,21.47
2022-08-11T01:27:25.477Z,21.42
2022-08-11T01:30:22.061Z,21.47
2022-08-11T01:33:29.932Z,21.50
2022-08-11T01:36:31.367Z,21.51
2022-08-11T01:39:24.860Z,21.43
2022-08-11T01:42:46.850Z,21.38
2022-08-11T01:45:29.354Z,21.29
2022-08-11T01:48:09.072Z,21.37
2022-08-11T01:51:04.038Z,21.40
2022-08-11T01:53:46.281Z,21.34
2022-08-11T01:56:29.565Z,21.33
2022-08-11T01:59:07.361Z,21.34
2022-08-11T02:02:02.466Z,21.31
2022-08-11T02:04:36.112Z,21.31
2022-08-11T02:07:14.982Z,21.29
2022-08-11T02:10:35.139Z,21.23
2022-08-11T02:13:13.367Z,21.19
2022-08-11T02:15:48.251Z,21.17
2022-08-11T02:18:45.697Z,21.12
2022-08-11T02:21:38.111Z,21.11
2022-08-11T02:24:15.554Z,21.09
2022-08-11T02:26:51.685Z,20.99
2022-08-11T02:29:27.028Z,20.90
2022-08-11T02:32:29.772Z,20.86
2022-08-11T02:35:15.361Z,20.92
2022-08-11T02:37:53.355Z,20.89
2022-08-11T02:40:35.480Z,20.90
2022-08-11T02:43:23.607Z,20.89
2022-08-11T02:46:05.852Z,20.87
2022-08-11T02:49:05.580Z,20.88
2022-08-11T02:51:41.929Z,20.78
2022-08-11T02:54:20.926Z,20.87
2022-08-11T02:56:55.995Z,20.82
2022-08-11T02:59:54.321Z,20.83
2022-08-11T03:02:34.691Z,20.80
2022-08-11T03:05:14.492Z,20.81
2022-08-11T03:07:57.220Z,20.76
2022-08-11T03:10:34.326Z,20.74
2022-08-11T03:13:30.147Z,20.77
2022-08-11T03:16:40.376Z,20.57
2022-08-11T03:19:17.085Z,20.52
2022-08-11T03:22:02.853Z,20.43
2022-08-11T03:24:45.628Z,20.44
2022-08-11T03:27:30.137Z,20.53
2022-08-11T03:30:07.926Z,20.53
2022-08-11T03:33:07.354Z,20.47
2022-08-11T03:35:42.654Z,20.47
2022-08-11T03:38:15.833Z,20.39
2022-08-11T03:42:02.086Z,20.41
2022-08-11T03:44:20.383Z,20.48
2022-08-11T03:47:09.959Z,20.52
2022-08-11T03:49:54.837Z,20.53
2022-08-11T03:52:34.436Z,20.58
2022-08-11T03:55:15.678Z,20.51
2022-08-11T03:58:32.294Z,20.55
2022-08-11T04:01:39.500Z,20.53
2022-08-11T04:04:25.758Z,20.54
2022-08-11T04:07:34.675Z,20.60
2022-08-11T04:10:43.407Z,20.56
2022-08-11T04:13:41.420Z,20.55
2022-08-11T04:16:24.788Z,20.57
2022-08-11T04:19:42.992Z,20.60
2022-08-11T04:23:03.935Z,20.58
2022-08-11T04:26:01.224Z,20.51
2022-08-11T04:29:09.598Z,20.51
2022-08-11T04:31:52.042Z,20.46
2022-08-11T04:34:46.123Z,20.43
2022-08-11T04:37:34.645Z,20.45
2022-08-11T04:40:35.200Z,20.48
2022-08-11T04:44:05.730Z,20.50
2022-08-11T04:47:09.216Z,20.52
2022-08-11T04:50:16.917Z,20.45
2022-08-11T04:53:34.068Z,20.38
2022-08-11T04:56:33.481Z,20.41
2022-08-11T04:59:59.182Z,20.44
2022-08-11T05:03:04.646Z,20.50
2022-08-11T05:05:56.804Z,20.44
2022-08-11T05:09:07.056Z,20.36
2022-08-11T05:11:57.942Z,20.45
2022-08-11T05:14:57.958Z,20.48
2022-08-11T05:17:54.659Z,20.51
2022-08-11T05:20:44.508Z,20.57
2022-08-11T05:23:32.041Z,20.61
2022-08-11T05:26:47.885Z,20.65
2022-08-11T05:29:45.126Z,20.71
2022-08-11T05:32:35.418Z,20.69
2022-08-11T05:35:08.604Z,20.72
2022-08-11T05:37:58.593Z,20.74
2022-08-11T05:40:51.278Z,20.76
2022-08-11T05:44:20.103Z,20.80
2022-08-11T05:46:58.345Z,20.84
2022-08-11T05:49:49.528Z,20.84
2022-08-11T05:52:41.842Z,20.85
2022-08-11T05:55:29.375Z,20.87
2022-08-11T05:58:00.364Z,20.93
2022-08-11T06:00:30.052Z,20.89
2022-08-11T06:03:07.726Z,20.91
2022-08-11T06:05:43.503Z,20.99
2022-08-11T06:08:14.728Z,21.02
2022-08-11T06:10:46.028Z,21.01
2022-08-11T06:13:18.311Z,21.06
2022-08-11T06:15:49.176Z,21.04
2022-08-11T06:18:20.962Z,21.01
2022-08-11T06:20:51.714Z,21.16
2022-08-11T06:23:23.684Z,21.23
2022-08-11T06:25:56.211Z,21.24
2022-08-11T06:28:33.746Z,21.34
2022-08-11T06:31:04.995Z,21.32
2022-08-11T06:33:43.945Z,21.37
2022-08-11T06:36:22.799Z,21.41
2022-08-11T06:39:03.966Z,21.41
2022-08-11T06:41:41.784Z,21.51
2022-08-11T06:44:17.912Z,21.55
2022-08-11T06:46:51.016Z,21.61
2022-08-11T06:49:40.962Z,21.63
2022-08-11T06:52:35.099Z,21.72
2022-08-11T06:55:12.604Z,21.77
2022-08-11T06:58:16.163Z,21.75
2022-08-11T07:00:47.226Z,21.79
2022-08-11T07:03:20.285Z,21.79
2022-08-11T07:05:55.052Z,21.79
2022-08-11T07:09:23.391Z,21.85
2022-08-11T07:12:31.620Z,21.83
2022-08-11T07:15:22.895Z,21.96
2022-08-11T07:18:13.035Z,22.04
2022-08-11T07:21:02.389Z,22.12
2022-08-11T07:23:54.310Z,22.23
2022-08-11T07:26:44.504Z,22.18
2022-08-11T07:29:16.633Z,22.28
2022-08-11T07:31:50.531Z,22.41
2022-08-11T07:34:23.766Z,22.46
2022-08-11T07:36:55.401Z,22.53
2022-08-11T07:39:27.600Z,22.52
2022-08-11T07:41:59.394Z,22.60
2022-08-11T07:44:34.685Z,22.67
2022-08-11T07:47:33.376Z,22.69
2022-08-11T07:50:20.193Z,22.79
2022-08-11T07:52:48.667Z,22.91
2022-08-11T07:55:51.815Z,23.06
2022-08-11T07:58:45.245Z,23.14
2022-08-11T08:01:40.899Z,23.28
2022-08-11T08:04:29.521Z,23.30
2022-08-11T08:07:17.559Z,23.34
2022-08-11T08:10:04.180Z,23.44
2022-08-11T08:12:54.013Z,23.54
2022-08-11T08:15:41.047Z,23.60
2022-08-11T08:18:26.259Z,23.67
2022-08-11T08:21:11.996Z,23.67
2022-08-11T08:23:43.124Z,23.80
2022-08-11T08:26:28.525Z,23.88
2022-08-11T08:29:16.020Z,23.98
2022-08-11T08:31:47.195Z,23.98
2022-08-11T08:34:17.840Z,24.04
2022-08-11T08:36:48.291Z,24.28
2022-08-11T08:39:22.126Z,24.39
2022-08-11T08:41:55.468Z,24.53
2022-08-11T08:44:38.407Z,24.69
2022-08-11T08:47:13.677Z,24.80
2022-08-11T08:49:49.895Z,24.90
2022-08-11T08:52:32.082Z,24.99
2022-08-11T08:55:07.896Z,25.08
2022-08-11T08:57:38.958Z,25.25
2022-08-11T09:00:13.800Z,25.25
2022-08-11T09:02:46.358Z,25.44
2022-08-11T09:05:19.191Z,25.57
2022-08-11T09:07:51.773Z,25.65
2022-08-11T09:10:21.623Z,25.88
2022-08-11T09:12:51.935Z,26.00
2022-08-11T09:15:24.060Z,26.06
2022-08-11T09:17:56.760Z,26.24
2022-08-11T09:20:29.193Z,26.41
2022-08-11T09:26:31.035Z,26.78
2022-08-11T09:29:01.881Z,27.13
2022-08-11T09:31:39.346Z,27.35
2022-08-11T09:34:11.349Z,27.67
2022-08-11T09:36:58.984Z,27.81
2022-08-11T09:39:47.000Z,28.01
2022-08-11T09:42:23.390Z,28.21
2022-08-11T09:44:53.818Z,28.55
2022-08-11T09:47:28.008Z,28.85
2022-08-11T09:50:01.334Z,29.07
2022-08-11T09:52:36.260Z,29.22
2022-08-11T09:55:11.054Z,29.48
2022-08-11T09:57:59.525Z,29.56
2022-08-11T10:00:32.225Z,29.78
2022-08-11T10:03:07.498Z,29.88
2022-08-11T10:05:53.511Z,29.96
2022-08-11T10:08:28.307Z,30.24
2022-08-11T10:10:57.776Z,30.41
2022-08-11T10:14:31.915Z,30.54
2022-08-11T10:16:26.376Z,30.69
2022-08-11T10:18:58.472Z,30.79
2022-08-11T10:21:30.349Z,30.94
2022-08-11T10:24:19.029Z,31.14
2022-08-11T10:27:00.240Z,30.95
2022-08-11T10:29:51.157Z,31.19
2022-08-11T10:32:58.084Z,31.36
2022-08-11T10:35:32.037Z,31.65
2022-08-11T10:38:08.357Z,31.77
2022-08-11T10:40:41.300Z,31.81
2022-08-11T10:43:14.324Z,31.86
2022-08-11T10:46:25.721Z,32.11
2022-08-11T10:49:00.042Z,32.28
2022-08-11T10:51:50.773Z,32.45
2022-08-11T10:54:39.745Z,32.52
2022-08-11T10:57:27.806Z,32.90
2022-08-11T10:59:57.545Z,33.05
2022-08-11T11:02:28.651Z,33.13
2022-08-11T11:05:04.648Z,33.22
2022-08-11T11:07:44.407Z,33.33
2022-08-11T11:10:13.439Z,33.44
2022-08-11T11:13:03.742Z,33.72
2022-08-11T11:15:53.121Z,33.85
2022-08-11T11:18:25.721Z,33.86
2022-08-11T11:20:58.335Z,33.96
2022-08-11T11:23:34.223Z,34.13
2022-08-11T11:26:33.036Z,34.10
2022-08-11T11:29:27.622Z,34.09
2022-08-11T11:32:13.100Z,34.14
2022-08-11T11:34:59.783Z,34.35
2022-08-11T11:37:33.371Z,34.69
2022-08-11T11:40:11.680Z,34.79
2022-08-11T11:42:42.846Z,34.75
2022-08-11T11:45:22.638Z,34.95
2022-08-11T11:47:56.118Z,35.03
2022-08-11T11:50:26.282Z,34.68
2022-08-11T11:53:03.345Z,34.19
2022-08-11T11:55:34.479Z,34.18
2022-08-11T11:58:22.219Z,34.33
2022-08-11T12:01:09.865Z,34.39
2022-08-11T12:03:39.513Z,34.49
2022-08-11T12:06:12.643Z,34.77
2022-08-11T12:08:42.157Z,34.76
2022-08-11T12:11:32.089Z,34.90
2022-08-11T12:14:04.725Z,34.40
2022-08-11T12:16:42.782Z,34.83
2022-08-11T12:19:14.486Z,35.09
2022-08-11T12:21:59.171Z,35.34
2022-08-11T12:24:48.403Z,34.87
2022-08-11T12:27:25.420Z,35.25
2022-08-11T12:29:57.733Z,35.34
2022-08-11T12:32:30.946Z,35.14
2022-08-11T12:34:59.875Z,35.13
2022-08-11T12:37:33.256Z,35.75
2022-08-11T12:40:50.140Z,35.97
2022-08-11T12:43:38.338Z,36.06
2022-08-11T12:46:11.915Z,35.98
2022-08-11T12:49:04.323Z,36.14
2022-08-11T12:52:12.068Z,36.48
2022-08-11T12:54:51.765Z,37.04
2022-08-11T12:57:47.437Z,37.44
2022-08-11T13:00:36.601Z,37.89
2022-08-11T13:03:26.295Z,37.38
2022-08-11T13:05:57.342Z,37.03
2022-08-11T13:08:29.535Z,37.10
2022-08-11T13:11:19.221Z,37.17
2022-08-11T13:13:54.031Z,37.26
2022-08-11T13:16:30.239Z,37.23
2022-08-11T13:19:01.725Z,37.25
2022-08-11T13:21:31.188Z,37.31
2022-08-11T13:24:03.540Z,36.96
2022-08-11T13:26:43.676Z,37.07
2022-08-11T13:29:20.613Z,36.80
2022-08-11T13:31:51.799Z,36.90
2022-08-11T13:34:21.671Z,36.95
2022-08-11T13:36:52.927Z,37.06
2022-08-11T13:39:24.429Z,36.69
2022-08-11T13:41:57.123Z,37.05
2022-08-11T13:44:28.718Z,37.36
2022-08-11T13:47:02.989Z,37.02
2022-08-11T13:49:32.668Z,36.98
2022-08-11T13:52:03.018Z,36.84
2022-08-11T13:54:35.653Z,36.60
2022-08-11T13:57:09.491Z,35.54
2022-08-11T14:00:09.654Z,34.88
2022-08-11T14:02:46.861Z,34.69
2022-08-11T14:05:18.043Z,34.79
2022-08-11T14:07:51.885Z,34.90
2022-08-11T14:10:23.040Z,34.92
2022-08-11T14:13:16.086Z,34.97
2022-08-11T14:15:47.288Z,34.63
2022-08-11T14:18:22.797Z,34.28
2022-08-11T14:21:13.288Z,33.90
2022-08-11T14:23:44.988Z,33.77
2022-08-11T14:26:28.120Z,33.63
2022-08-11T14:29:02.589Z,33.75
2022-08-11T14:31:33.019Z,33.61
2022-08-11T14:34:05.708Z,33.61
2022-08-11T14:36:37.018Z,33.57
2022-08-11T14:39:12.004Z,33.69
2022-08-11T14:42:11.754Z,33.68
2022-08-11T14:45:05.333Z,33.64
2022-08-11T14:47:36.571Z,33.66
2022-08-11T14:50:12.558Z,33.75
2022-08-11T14:52:46.924Z,33.92
2022-08-11T14:55:34.311Z,33.89
2022-08-11T14:58:04.130Z,34.07
2022-08-11T15:00:34.762Z,34.07
2022-08-11T15:03:11.025Z,34.11
2022-08-11T15:05:57.202Z,34.16
2022-08-11T15:08:48.039Z,33.64
2022-08-11T15:11:36.363Z,33.44
2022-08-11T15:14:07.419Z,33.34
2022-08-11T15:16:55.232Z,33.51
2022-08-11T15:19:40.381Z,33.46
2022-08-11T15:22:30.002Z,33.30
2022-08-11T15:24:59.787Z,33.19
2022-08-11T15:27:48.282Z,33.38
2022-08-11T15:30:35.155Z,33.19
2022-08-11T15:33:26.647Z,33.37
2022-08-11T15:36:18.355Z,33.40
2022-08-11T15:38:55.342Z,33.36
2022-08-11T15:41:58.604Z,33.31
2022-08-11T15:45:03.563Z,33.40
2022-08-11T15:47:39.275Z,33.46
2022-08-11T15:50:16.004Z,33.79
2022-08-11T15:52:54.100Z,33.83
2022-08-11T15:55:25.494Z,34.18
2022-08-11T15:58:15.387Z,33.83
2022-08-11T16:01:08.886Z,33.50
2022-08-11T16:04:07.435Z,33.73
2022-08-11T16:06:51.416Z,33.81
2022-08-11T16:09:26.437Z,33.51
2022-08-11T16:12:04.723Z,33.52
2022-08-11T16:14:54.411Z,33.70
2022-08-11T16:17:27.192Z,33.81
2022-08-11T16:19:58.356Z,33.77
2022-08-11T16:22:36.543Z,33.89
2022-08-11T16:27:06.893Z,33.69
2022-08-11T16:28:03.912Z,33.70
2022-08-11T16:30:33.172Z,33.55
2022-08-11T16:33:48.792Z,33.29
2022-08-11T16:36:13.476Z,33.32
2022-08-11T16:38:44.074Z,33.32
2022-08-11T16:41:37.180Z,33.34
2022-08-11T16:44:32.810Z,33.32
2022-08-11T16:47:09.098Z,33.21
2022-08-11T16:49:43.611Z,33.28
2022-08-11T16:52:23.895Z,33.21
2022-08-11T16:54:53.433Z,33.19
2022-08-11T16:57:42.780Z,33.04
2022-08-11T17:00:16.217Z,33.02
2022-08-11T17:03:06.099Z,32.85
2022-08-11T17:05:55.858Z,32.88
2022-08-11T17:08:57.188Z,32.90
2022-08-11T17:11:46.533Z,32.71
2022-08-11T17:14:36.114Z,32.51
2022-08-11T17:17:12.393Z,32.32
2022-08-11T17:20:42.469Z,32.25
2022-08-11T17:22:54.478Z,32.21
2022-08-11T17:25:25.875Z,32.11
2022-08-11T17:27:56.794Z,31.99
2022-08-11T17:30:48.789Z,31.79
2022-08-11T17:33:37.965Z,31.81
2022-08-11T17:36:08.399Z,31.80
2022-08-11T17:38:37.705Z,31.59
2022-08-11T17:41:26.388Z,31.45
2022-08-11T17:44:13.622Z,31.43
2022-08-11T17:47:05.665Z,31.32
2022-08-11T17:49:39.928Z,31.24
2022-08-11T17:52:31.895Z,31.14
2022-08-11T17:55:51.127Z,31.02
2022-08-11T17:58:32.321Z,30.91
2022-08-11T18:01:09.045Z,30.59
2022-08-11T18:03:41.041Z,30.61
2022-08-11T18:06:14.147Z,30.53
2022-08-11T18:09:05.299Z,30.46
2022-08-11T18:12:11.240Z,30.35
2022-08-11T18:15:03.024Z,30.23
2022-08-11T18:17:49.266Z,30.12
2022-08-11T18:20:36.896Z,29.99
2022-08-11T18:23:41.793Z,29.86
2022-08-11T18:26:36.786Z,29.59
2022-08-11T18:29:26.238Z,29.46
2022-08-11T18:32:22.189Z,29.29
2022-08-11T18:35:14.036Z,29.16
2022-08-11T18:38:04.879Z,29.03
2022-08-11T18:40:54.505Z,28.85
2022-08-11T18:43:44.685Z,28.57
2022-08-11T18:46:32.475Z,28.46
2022-08-11T18:50:02.353Z,28.41
2022-08-11T18:52:35.965Z,28.32
2022-08-11T18:55:24.912Z,28.14
2022-08-11T18:58:13.435Z,28.11
2022-08-11T19:01:01.912Z,28.02
2022-08-11T19:03:51.160Z,27.94
2022-08-11T19:06:41.234Z,27.77
2022-08-11T19:09:31.223Z,27.74
2022-08-11T19:12:19.099Z,27.67
2022-08-11T19:15:09.609Z,27.62
2022-08-11T19:18:01.597Z,27.61
2022-08-11T19:20:50.254Z,27.58
2022-08-11T19:23:43.432Z,27.54
2022-08-11T19:26:30.340Z,27.45
2022-08-11T19:30:07.417Z,27.34
2022-08-11T19:32:26.647Z,27.21
2022-08-11T19:35:15.217Z,27.16
2022-08-11T19:38:05.464Z,27.08
2022-08-11T19:40:52.933Z,27.05
2022-08-11T19:43:39.321Z,27.00
2022-08-11T19:46:27.224Z,26.90
2022-08-11T19:49:15.881Z,26.84
2022-08-11T19:52:04.636Z,26.75
2022-08-11T19:54:54.453Z,26.67
2022-08-11T19:57:43.635Z,26.57
2022-08-11T20:00:33.853Z,26.45
2022-08-11T20:03:22.200Z,26.44
2022-08-11T20:06:11.524Z,26.24
2022-08-11T20:09:00.921Z,26.21
2022-08-11T20:11:50.374Z,25.99
2022-08-11T20:14:38.883Z,25.93
2022-08-11T20:17:26.472Z,25.88
2022-08-11T20:20:14.018Z,25.84
2022-08-11T20:23:02.189Z,25.68
2022-08-11T20:25:48.720Z,25.68
2022-08-11T20:28:38.111Z,25.71
2022-08-11T20:31:26.430Z,25.76
2022-08-11T20:34:14.343Z,25.74
2022-08-11T20:37:03.236Z,25.73
2022-08-11T20:39:53.228Z,25.70
2022-08-11T20:42:41.642Z,25.65
2022-08-11T20:45:29.332Z,25.60
2022-08-11T20:48:17.444Z,25.52
2022-08-11T20:51:05.988Z,25.45
2022-08-11T20:53:54.562Z,25.47
2022-08-11T20:56:44.359Z,25.37
2022-08-11T20:59:33.309Z,25.40
2022-08-11T21:02:41.203Z,25.36
2022-08-11T21:06:10.071Z,25.33
2022-08-11T21:08:41.739Z,25.22
2022-08-11T21:11:29.279Z,25.18
2022-08-11T21:14:19.518Z,25.13
2022-08-11T21:17:27.113Z,25.07
2022-08-11T21:20:21.212Z,25.00
2022-08-11T21:23:10.392Z,24.90
2022-08-11T21:26:04.810Z,24.86
2022-08-11T21:28:53.648Z,24.78
2022-08-11T21:31:44.705Z,24.71
2022-08-11T21:34:32.941Z,24.60
2022-08-11T21:37:20.900Z,24.48
2022-08-11T21:40:14.916Z,24.27
2022-08-11T21:43:07.234Z,24.19
2022-08-11T21:45:55.692Z,24.15
2022-08-11T21:48:45.920Z,24.06
2022-08-11T21:51:32.278Z,23.93
2022-08-11T21:54:20.775Z,23.80
2022-08-11T21:57:07.021Z,23.75
2022-08-11T22:00:11.111Z,23.71
2022-08-11T22:02:58.424Z,23.64
2022-08-11T22:05:47.584Z,23.60
2022-08-11T22:08:33.928Z,23.55
2022-08-11T22:11:32.024Z,23.49
2022-08-11T22:14:19.423Z,23.39
2022-08-11T22:17:06.151Z,23.30
2022-08-11T22:19:54.594Z,23.20
2022-08-11T22:22:52.047Z,23.13
2022-08-11T22:25:46.471Z,23.07
2022-08-11T22:28:38.906Z,23.02
2022-08-11T22:31:26.900Z,22.97
2022-08-11T22:34:13.107Z,23.03
2022-08-11T22:36:59.950Z,23.07
2022-08-11T22:40:00.063Z,23.10
2022-08-11T22:42:49.035Z,23.10
2022-08-11T22:45:36.336Z,23.09
2022-08-11T22:48:23.759Z,23.11
2022-08-11T22:51:11.356Z,23.02
2022-08-11T22:53:59.245Z,23.05
2022-08-11T22:56:48.134Z,23.10
2022-08-11T22:59:36.312Z,23.14
2022-08-11T23:02:23.977Z,23.14
2022-08-11T23:05:10.467Z,23.14
2022-08-11T23:07:58.311Z,23.03
2022-08-11T23:10:46.003Z,22.99
2022-08-11T23:13:34.840Z,22.97
2022-08-11T23:16:21.344Z,22.94
2022-08-11T23:19:08.997Z,22.89
2022-08-11T23:21:57.110Z,22.81
2022-08-11T23:24:44.644Z,22.89
2022-08-11T23:27:32.802Z,22.86
2022-08-11T23:30:20.759Z,22.82
2022-08-11T23:33:12.882Z,22.79
2022-08-11T23:36:05.393Z,22.77
2022-08-11T23:38:52.671Z,22.72
2022-08-11T23:41:39.394Z,22.50
2022-08-11T23:44:27.523Z,22.50
2022-08-11T23:47:17.031Z,22.46
2022-08-11T23:50:05.820Z,22.41
2022-08-11T23:52:53.218Z,22.45
2022-08-11T23:55:40.552Z,22.37
2022-08-11T23:58:26.872Z,22.32
